Time;durP1;ratioP1;P1;durP2;ratioP2;P2;SDS_P1;SDS_P2;PMS_P1;PMS_P2;Temp;Humidity;BMP_temperature;BMP_pressure;BME280_temperature;BME280_humidity;BME280_pressure;Samples;Min_cycle;Max_cycle;Signal;HPM_P1;HPM_P2
2022/03/04 00:02:33;0.00;0.00;0.62;0.00;0.00;0.62;1.43;1.07;;;23.90;20.70;;;;;;2253105;61;20454;-67
2022/03/04 00:05:18;0.00;0.00;0.62;0.00;0.00;0.62;2.23;1.20;;;23.90;20.70;;;;;;2253788;61;20363;-66
2022/03/04 00:08:03;0.00;0.00;0.62;0.00;0.00;0.62;1.80;1.40;;;23.90;20.80;;;;;;2253648;61;20368;-67
2022/03/04 00:10:48;0.00;0.00;0.62;0.00;0.00;0.62;1.90;1.33;;;23.90;20.80;;;;;;2253382;61;20383;-68
2022/03/04 00:13:33;0.00;0.00;0.62;0.00;0.00;0.62;1.80;1.17;;;23.90;20.80;;;;;;2253813;61;21013;-67
2022/03/04 00:16:19;0.00;0.00;0.62;0.00;0.00;0.62;1.90;1.27;;;23.90;20.80;;;;;;2252786;61;20386;-69
2022/03/04 00:19:07;0.00;0.00;0.62;0.00;0.00;0.62;2.17;1.20;;;23.90;20.90;;;;;;2253461;61;20580;-67
2022/03/04 00:21:52;0.00;0.00;0.62;0.00;0.00;0.62;2.03;1.40;;;23.80;20.80;;;;;;2253596;61;20400;-68
2022/03/04 00:24:36;0.00;0.00;0.62;0.00;0.00;0.62;1.70;1.37;;;23.80;20.80;;;;;;2253204;61;20358;-66
2022/03/04 00:27:21;0.00;0.00;0.62;0.00;0.00;0.62;1.80;1.30;;;23.80;20.90;;;;;;2253689;61;20587;-68
2022/03/04 00:30:07;0.00;0.00;0.62;0.00;0.00;0.62;1.70;1.37;;;23.80;20.90;;;;;;2252858;61;20435;-67
2022/03/04 00:32:53;0.00;0.00;0.62;0.00;0.00;0.62;1.60;1.30;;;23.80;20.90;;;;;;2252602;61;20427;-68
2022/03/04 00:35:38;0.00;0.00;0.62;0.00;0.00;0.62;2.10;1.00;;;23.80;20.90;;;;;;2253665;61;20734;-65
2022/03/04 00:38:23;0.00;0.00;0.62;0.00;0.00;0.62;1.80;1.40;;;23.80;20.90;;;;;;2253059;61;20506;-69
2022/03/04 00:41:08;0.00;0.00;0.62;0.00;0.00;0.62;1.70;1.10;;;23.80;20.90;;;;;;2253012;61;20392;-67
2022/03/04 00:43:53;0.00;0.00;0.62;0.00;0.00;0.62;1.90;1.47;;;23.80;21.00;;;;;;2253709;61;20384;-69
2022/03/04 00:46:37;0.00;0.00;0.62;0.00;0.00;0.62;2.13;1.37;;;23.80;21.00;;;;;;2253285;61;20627;-68
2022/03/04 00:49:23;0.00;0.00;0.62;0.00;0.00;0.62;2.50;1.43;;;23.70;20.90;;;;;;2253837;61;20407;-68
2022/03/04 00:52:07;0.00;0.00;0.62;0.00;0.00;0.62;2.27;1.33;;;23.80;21.00;;;;;;2253120;61;20387;-67
2022/03/04 00:54:52;0.00;0.00;0.62;0.00;0.00;0.62;1.80;1.33;;;23.70;21.00;;;;;;2252742;61;20719;-67
2022/03/04 00:57:37;0.00;0.00;0.62;0.00;0.00;0.62;1.63;0.97;;;23.70;21.00;;;;;;2253707;61;20504;-69
2022/03/04 01:00:21;0.00;0.00;0.62;0.00;0.00;0.62;1.57;0.87;;;23.70;21.00;;;;;;2252846;61;20419;-65
2022/03/04 01:03:06;0.00;0.00;0.62;0.00;0.00;0.62;1.83;1.47;;;23.70;21.00;;;;;;2253259;61;20404;-70
2022/03/04 01:05:52;0.00;0.00;0.62;0.00;0.00;0.62;1.50;1.10;;;23.70;21.10;;;;;;2253675;61;20654;-65
2022/03/04 01:08:37;0.00;0.00;0.62;0.00;0.00;0.62;1.60;1.10;;;23.70;21.10;;;;;;2252959;61;20374;-69
2022/03/04 01:11:21;0.00;0.00;0.62;0.00;0.00;0.62;1.73;1.20;;;23.70;21.10;;;;;;2253289;61;20360;-69
2022/03/04 01:14:07;0.00;0.00;0.62;0.00;0.00;0.62;2.07;1.17;;;23.70;21.10;;;;;;2253343;61;20583;-68
2022/03/04 01:16:52;0.00;0.00;0.62;0.00;0.00;0.62;1.53;1.20;;;23.70;21.20;;;;;;2252914;61;20436;-67
2022/03/04 01:19:36;0.00;0.00;0.62;0.00;0.00;0.62;1.50;0.90;;;23.70;21.20;;;;;;2253629;61;20523;-67
2022/03/04 01:22:22;0.00;0.00;0.62;0.00;0.00;0.62;1.60;1.00;;;23.70;21.20;;;;;;2252844;61;20418;-68
2022/03/04 01:25:08;0.00;0.00;0.62;0.00;0.00;0.62;1.60;1.30;;;23.60;21.10;;;;;;2253304;61;20383;-69
2022/03/04 01:27:53;0.00;0.00;0.62;0.00;0.00;0.62;2.43;1.40;;;23.70;21.20;;;;;;2253534;61;20362;-67
2022/03/04 01:30:38;0.00;0.00;0.62;0.00;0.00;0.62;1.73;1.10;;;23.60;21.10;;;;;;2252949;61;20364;-68
2022/03/04 01:33:24;0.00;0.00;0.62;0.00;0.00;0.62;1.40;1.00;;;23.60;21.10;;;;;;2253317;61;20387;-67
2022/03/04 01:36:08;0.00;0.00;0.62;0.00;0.00;0.62;1.80;1.43;;;23.60;21.20;;;;;;2252755;61;20367;-67
2022/03/04 01:38:54;0.00;0.00;0.62;0.00;0.00;0.62;1.60;1.10;;;23.60;21.20;;;;;;2252954;61;20475;-68
2022/03/04 01:41:39;0.00;0.00;0.62;0.00;0.00;0.62;1.50;0.90;;;23.60;21.30;;;;;;2254100;61;20407;-66
2022/03/04 01:44:23;0.00;0.00;0.62;0.00;0.00;0.62;1.57;1.00;;;23.60;21.30;;;;;;2253743;61;20394;-67
2022/03/04 01:47:08;0.00;0.00;0.62;0.00;0.00;0.62;1.63;0.97;;;23.60;21.30;;;;;;2254059;61;20360;-67
2022/03/04 01:49:53;0.00;0.00;0.62;0.00;0.00;0.62;1.70;1.20;;;23.60;21.30;;;;;;2254287;61;20744;-67
2022/03/04 01:52:39;0.00;0.00;0.62;0.00;0.00;0.62;1.97;1.20;;;23.60;21.30;;;;;;2253256;61;20495;-68
2022/03/04 01:55:25;0.00;0.00;0.62;0.00;0.00;0.62;1.53;1.17;;;23.60;21.30;;;;;;2253892;61;20719;-66
2022/03/04 01:58:11;0.00;0.00;0.62;0.00;0.00;0.62;1.40;1.00;;;23.60;21.30;;;;;;2254234;61;20590;-67
2022/03/04 02:00:55;0.00;0.00;0.62;0.00;0.00;0.62;1.30;0.90;;;23.60;21.30;;;;;;2253395;61;20438;-66
2022/03/04 02:03:40;0.00;0.00;0.62;0.00;0.00;0.62;1.70;1.13;;;23.60;21.30;;;;;;2254166;61;20387;-67
2022/03/04 02:06:24;0.00;0.00;0.62;0.00;0.00;0.62;1.50;1.00;;;23.50;21.20;;;;;;2253832;61;20444;-67
2022/03/04 02:09:09;0.00;0.00;0.62;0.00;0.00;0.62;1.60;1.20;;;23.50;21.20;;;;;;2253727;61;20688;-67
2022/03/04 02:11:55;0.00;0.00;0.62;0.00;0.00;0.62;2.17;1.10;;;23.50;21.20;;;;;;2253996;61;20399;-68
2022/03/04 02:14:40;0.00;0.00;0.62;0.00;0.00;0.62;1.40;1.00;;;23.50;21.20;;;;;;2253459;61;20711;-69
2022/03/04 02:17:24;0.00;0.00;0.62;0.00;0.00;0.62;1.60;0.90;;;23.50;21.20;;;;;;2253804;61;20363;-69
2022/03/04 02:20:10;0.00;0.00;0.62;0.00;0.00;0.62;1.57;0.90;;;23.50;21.20;;;;;;2254096;61;20722;-69
2022/03/04 02:22:56;0.00;0.00;0.62;0.00;0.00;0.62;1.40;0.93;;;23.50;21.20;;;;;;2253720;61;20787;-68
2022/03/04 02:25:43;0.00;0.00;0.62;0.00;0.00;0.62;1.60;1.00;;;23.50;21.20;;;;;;2254153;61;20383;-69
2022/03/04 02:28:28;0.00;0.00;0.62;0.00;0.00;0.62;1.60;0.90;;;23.50;21.20;;;;;;2253821;61;20395;-67
2022/03/04 02:31:14;0.00;0.00;0.62;0.00;0.00;0.62;1.70;1.10;;;23.50;21.20;;;;;;2253355;61;20355;-67
2022/03/04 02:34:01;0.00;0.00;0.62;0.00;0.00;0.62;1.60;0.93;;;23.50;21.20;;;;;;2254220;61;20366;-68
2022/03/04 02:36:47;0.00;0.00;0.62;0.00;0.00;0.62;1.60;1.17;;;23.50;21.20;;;;;;2253456;61;20356;-69
2022/03/04 02:39:34;0.00;0.00;0.62;0.00;0.00;0.62;1.70;1.10;;;23.40;21.20;;;;;;2253501;61;20360;-69
2022/03/04 02:42:18;0.00;0.00;0.62;0.00;0.00;0.62;1.50;1.00;;;23.40;21.20;;;;;;2254073;61;20399;-67
2022/03/04 02:45:03;0.00;0.00;0.62;0.00;0.00;0.62;1.30;0.80;;;23.40;21.30;;;;;;2253495;61;20406;-68
2022/03/04 02:47:48;0.00;0.00;0.62;0.00;0.00;0.62;1.50;1.10;;;23.40;21.20;;;;;;2254189;61;20743;-68
2022/03/04 02:50:33;0.00;0.00;0.62;0.00;0.00;0.62;1.70;1.07;;;23.40;21.20;;;;;;2253723;61;20356;-68
2022/03/04 02:53:18;0.00;0.00;0.62;0.00;0.00;0.62;1.50;1.13;;;23.40;21.20;;;;;;2253115;61;20455;-67
2022/03/04 02:56:05;0.00;0.00;0.62;0.00;0.00;0.62;1.60;1.00;;;23.40;21.20;;;;;;2253992;61;20384;-67
2022/03/04 02:58:50;0.00;0.00;0.62;0.00;0.00;0.62;1.50;1.00;;;23.40;21.20;;;;;;2253423;61;20725;-67
2022/03/04 03:01:34;0.00;0.00;0.62;0.00;0.00;0.62;1.50;0.90;;;23.40;21.20;;;;;;2253722;61;20379;-68
2022/03/04 03:04:19;0.00;0.00;0.62;0.00;0.00;0.62;1.40;0.90;;;23.40;21.20;;;;;;2254027;61;20364;-67
2022/03/04 03:07:04;0.00;0.00;0.62;0.00;0.00;0.62;1.50;1.00;;;23.40;21.20;;;;;;2253326;61;20380;-69
2022/03/04 03:09:49;0.00;0.00;0.62;0.00;0.00;0.62;1.70;1.13;;;23.40;21.20;;;;;;2253278;61;20823;-68
2022/03/04 03:12:35;0.00;0.00;0.62;0.00;0.00;0.62;1.63;0.97;;;23.40;21.20;;;;;;2253483;61;20379;-68
2022/03/04 03:15:19;0.00;0.00;0.62;0.00;0.00;0.62;1.30;0.90;;;23.40;21.20;;;;;;2253328;61;20360;-69
2022/03/04 03:18:04;0.00;0.00;0.62;0.00;0.00;0.62;1.50;1.00;;;23.40;21.20;;;;;;2253934;61;20391;-68
2022/03/04 03:20:49;0.00;0.00;0.62;0.00;0.00;0.62;1.60;1.00;;;23.40;21.20;;;;;;2253160;61;20748;-67
2022/03/04 03:23:34;0.00;0.00;0.62;0.00;0.00;0.62;1.57;1.00;;;23.40;21.20;;;;;;2253303;61;20423;-67
2022/03/04 03:26:19;0.00;0.00;0.62;0.00;0.00;0.62;1.60;1.10;;;23.30;21.10;;;;;;2254063;61;20403;-67
2022/03/04 03:29:05;0.00;0.00;0.62;0.00;0.00;0.62;1.50;0.93;;;23.30;21.10;;;;;;2253289;61;20464;-69
2022/03/04 03:31:51;0.00;0.00;0.62;0.00;0.00;0.62;1.40;0.87;;;23.30;21.10;;;;;;2253423;61;20707;-66
2022/03/04 03:34:35;0.00;0.00;0.62;0.00;0.00;0.62;1.30;0.83;;;23.30;21.10;;;;;;2253637;61;20372;-67
2022/03/04 03:37:20;0.00;0.00;0.62;0.00;0.00;0.62;1.33;0.87;;;23.30;21.10;;;;;;2253245;61;20724;-68
2022/03/04 03:40:09;0.00;0.00;0.62;0.00;0.00;0.62;1.40;0.80;;;23.30;21.10;;;;;;2253539;61;20772;-67
2022/03/04 03:42:53;0.00;0.00;0.62;0.00;0.00;0.62;1.30;0.87;;;23.30;21.10;;;;;;2253372;61;20384;-69
2022/03/04 03:45:39;0.00;0.00;0.62;0.00;0.00;0.62;1.63;1.10;;;23.30;21.10;;;;;;2253534;61;20407;-69
2022/03/04 03:48:23;0.00;0.00;0.62;0.00;0.00;0.62;1.20;0.77;;;23.30;21.10;;;;;;2253927;61;20367;-68
2022/03/04 03:51:09;0.00;0.00;0.62;0.00;0.00;0.62;1.67;0.93;;;23.30;21.10;;;;;;2253322;61;20364;-67
2022/03/04 03:53:53;0.00;0.00;0.62;0.00;0.00;0.62;1.60;1.07;;;23.30;21.10;;;;;;2253542;61;20363;-69
2022/03/04 03:56:38;0.00;0.00;0.62;0.00;0.00;0.62;1.70;0.90;;;23.30;21.10;;;;;;2253529;61;20366;-68
2022/03/04 03:59:22;0.00;0.00;0.62;0.00;0.00;0.62;1.73;1.17;;;23.20;21.00;;;;;;2253283;61;20724;-68
2022/03/04 04:02:09;0.00;0.00;0.62;0.00;0.00;0.62;1.50;0.80;;;23.20;21.10;;;;;;2253572;61;20654;-69
2022/03/04 04:04:53;0.00;0.00;0.62;0.00;0.00;0.62;1.63;0.80;;;23.30;21.10;;;;;;2253534;61;20367;-66
2022/03/04 04:07:38;0.00;0.00;0.62;0.00;0.00;0.62;1.20;0.70;;;23.30;21.20;;;;;;2253496;61;20760;-66
2022/03/04 04:10:23;0.00;0.00;0.62;0.00;0.00;0.62;1.30;0.80;;;23.20;21.20;;;;;;2253715;61;20359;-68
2022/03/04 04:13:07;0.00;0.00;0.62;0.00;0.00;0.62;1.40;0.87;;;23.20;21.20;;;;;;2252999;61;20609;-68
2022/03/04 04:15:52;0.00;0.00;0.62;0.00;0.00;0.62;1.60;0.80;;;23.20;21.20;;;;;;2253608;61;20448;-67
2022/03/04 04:18:38;0.00;0.00;0.62;0.00;0.00;0.62;1.40;0.90;;;23.20;21.20;;;;;;2253729;61;20712;-69
2022/03/04 04:21:23;0.00;0.00;0.62;0.00;0.00;0.62;1.43;0.80;;;23.20;21.20;;;;;;2253135;61;20411;-67
2022/03/04 04:24:07;0.00;0.00;0.62;0.00;0.00;0.62;1.23;0.70;;;23.20;21.30;;;;;;2253778;61;20387;-68
2022/03/04 04:26:52;0.00;0.00;0.62;0.00;0.00;0.62;1.40;0.93;;;23.20;21.30;;;;;;2253363;61;20388;-67
2022/03/04 04:29:37;0.00;0.00;0.62;0.00;0.00;0.62;1.30;0.80;;;23.20;21.20;;;;;;2253147;61;20444;-68
2022/03/04 04:32:22;0.00;0.00;0.62;0.00;0.00;0.62;1.50;0.90;;;23.20;21.30;;;;;;2253405;61;20751;-68
2022/03/04 04:35:09;0.00;0.00;0.62;0.00;0.00;0.62;1.63;0.90;;;23.20;21.30;;;;;;2253115;61;20367;-68
2022/03/04 04:37:53;0.00;0.00;0.62;0.00;0.00;0.62;1.40;0.80;;;23.20;21.30;;;;;;2253412;61;20367;-67
2022/03/04 04:40:38;0.00;0.00;0.62;0.00;0.00;0.62;1.60;1.10;;;23.20;21.30;;;;;;2253717;61;20629;-68
2022/03/04 04:43:23;0.00;0.00;0.62;0.00;0.00;0.62;1.40;0.80;;;23.10;21.20;;;;;;2253115;61;20379;-69
2022/03/04 04:46:08;0.00;0.00;0.62;0.00;0.00;0.62;1.47;1.03;;;23.10;21.30;;;;;;2253641;61;20480;-67
2022/03/04 04:48:53;0.00;0.00;0.62;0.00;0.00;0.62;1.30;0.80;;;23.20;21.30;;;;;;2253532;61;20367;-67
2022/03/04 04:51:39;0.00;0.00;0.62;0.00;0.00;0.62;1.40;0.80;;;23.10;21.30;;;;;;2252807;61;20424;-69
2022/03/04 04:54:23;0.00;0.00;0.62;0.00;0.00;0.62;1.50;0.80;;;23.10;21.30;;;;;;2253698;61;20370;-68
2022/03/04 04:57:08;0.00;0.00;0.62;0.00;0.00;0.62;1.60;0.80;;;23.10;21.30;;;;;;2252936;61;20644;-68
2022/03/04 04:59:52;0.00;0.00;0.62;0.00;0.00;0.62;1.37;0.90;;;23.10;21.30;;;;;;2253277;61;20364;-67
2022/03/04 05:02:37;0.00;0.00;0.62;0.00;0.00;0.62;1.50;0.80;;;23.10;21.30;;;;;;2253671;61;20443;-68
2022/03/04 05:05:21;0.00;0.00;0.62;0.00;0.00;0.62;1.30;0.67;;;23.10;21.30;;;;;;2252936;61;20368;-63
2022/03/04 05:08:07;0.00;0.00;0.62;0.00;0.00;0.62;2.10;1.60;;;23.10;21.40;;;;;;2253321;61;20368;-65
2022/03/04 05:10:51;0.00;0.00;0.62;0.00;0.00;0.62;1.50;1.20;;;23.10;21.20;;;;;;2253400;61;20368;-66
2022/03/04 05:13:36;0.00;0.00;0.62;0.00;0.00;0.62;2.27;1.87;;;23.10;20.90;;;;;;2252832;61;20399;-64
2022/03/04 05:16:21;0.00;0.00;0.62;0.00;0.00;0.62;2.10;1.53;;;23.00;20.90;;;;;;2254291;61;20399;-65
2022/03/04 05:19:05;0.00;0.00;0.62;0.00;0.00;0.62;2.17;1.33;;;23.00;20.90;;;;;;2253868;61;20403;-64
2022/03/04 05:21:50;0.00;0.00;0.62;0.00;0.00;0.62;2.67;1.63;;;23.00;20.90;;;;;;2253367;61;20791;-63
2022/03/04 05:24:36;0.00;0.00;0.62;0.00;0.00;0.62;2.43;1.40;;;23.00;20.90;;;;;;2254470;61;20375;-63
2022/03/04 05:27:20;0.00;0.00;0.62;0.00;0.00;0.62;3.07;1.77;;;23.00;20.90;;;;;;2487778;53;20726;-62
2022/03/04 05:30:07;0.00;0.00;0.62;0.00;0.00;0.62;3.47;1.90;;;22.90;20.80;;;;;;2254065;61;20507;-63
2022/03/04 05:32:51;0.00;0.00;0.62;0.00;0.00;0.62;2.17;1.70;;;22.90;20.80;;;;;;2253814;61;20422;-62
2022/03/04 05:35:36;0.00;0.00;0.62;0.00;0.00;0.62;1.93;1.60;;;22.90;20.60;;;;;;2253496;61;20436;-63
2022/03/04 05:38:20;0.00;0.00;0.62;0.00;0.00;0.62;2.50;1.80;;;22.80;20.50;;;;;;2254397;61;20359;-63
2022/03/04 05:41:06;0.00;0.00;0.62;0.00;0.00;0.62;3.07;2.37;;;22.80;20.80;;;;;;2253473;61;20763;-64
2022/03/04 05:43:54;0.00;0.00;0.62;0.00;0.00;0.62;2.73;2.40;;;22.80;20.10;;;;;;2253976;61;20415;-62
2022/03/04 05:46:38;0.00;0.00;0.62;0.00;0.00;0.62;2.83;2.20;;;22.80;20.00;;;;;;2254302;61;20399;-62
2022/03/04 05:49:23;0.00;0.00;0.62;0.00;0.00;0.62;3.53;1.77;;;22.70;19.80;;;;;;2253591;61;20371;-61
2022/03/04 05:52:08;0.00;0.00;0.62;0.00;0.00;0.62;2.97;2.20;;;22.70;19.80;;;;;;2253797;61;20456;-65
2022/03/04 05:54:53;0.00;0.00;0.62;0.00;0.00;0.62;3.80;2.50;;;22.60;19.80;;;;;;2254234;61;20364;-63
2022/03/04 05:57:38;0.00;0.00;0.62;0.00;0.00;0.62;3.23;2.30;;;22.60;19.80;;;;;;2253777;61;20588;-64
2022/03/04 06:00:25;0.00;0.00;0.62;0.00;0.00;0.62;3.40;2.80;;;22.50;19.70;;;;;;2254290;61;20352;-64
2022/03/04 06:03:10;0.00;0.00;0.62;0.00;0.00;0.62;2.43;2.10;;;22.50;19.70;;;;;;2253719;61;20461;-66
2022/03/04 06:05:54;0.00;0.00;0.62;0.00;0.00;0.62;3.13;2.03;;;22.40;19.70;;;;;;2253669;61;20376;-66
2022/03/04 06:08:39;0.00;0.00;0.62;0.00;0.00;0.62;2.67;1.60;;;22.40;19.80;;;;;;2254167;61;20378;-66
2022/03/04 06:11:25;0.00;0.00;0.62;0.00;0.00;0.62;2.70;2.07;;;22.40;19.90;;;;;;2253375;61;20345;-66
2022/03/04 06:14:11;0.00;0.00;0.62;0.00;0.00;0.62;2.50;1.73;;;22.30;20.00;;;;;;2253903;61;20364;-65
2022/03/04 06:16:56;0.00;0.00;0.62;0.00;0.00;0.62;2.60;1.57;;;22.30;20.10;;;;;;2254085;61;20435;-65
2022/03/04 06:19:41;0.00;0.00;0.62;0.00;0.00;0.62;2.07;1.33;;;22.30;20.10;;;;;;2253910;61;20432;-66
2022/03/04 06:22:26;0.00;0.00;0.62;0.00;0.00;0.62;1.60;1.00;;;22.30;20.30;;;;;;2253930;61;20427;-65
2022/03/04 06:25:12;0.00;0.00;0.62;0.00;0.00;0.62;1.73;1.50;;;22.20;20.30;;;;;;2254018;61;20800;-66
2022/03/04 06:27:59;0.00;0.00;0.62;0.00;0.00;0.62;1.70;1.33;;;22.30;20.40;;;;;;2253576;61;20415;-65
2022/03/04 06:30:45;0.00;0.00;0.62;0.00;0.00;0.62;1.93;1.17;;;22.30;20.40;;;;;;2254137;61;20380;-65
2022/03/04 06:33:32;0.00;0.00;0.62;0.00;0.00;0.62;1.60;1.13;;;22.20;20.30;;;;;;2253329;61;20620;-66
2022/03/04 06:36:17;0.00;0.00;0.62;0.00;0.00;0.62;2.07;1.23;;;22.20;20.30;;;;;;2253342;61;20352;-65
2022/03/04 06:39:01;0.00;0.00;0.62;0.00;0.00;0.62;2.23;1.30;;;22.20;20.30;;;;;;2254144;61;20362;-65
2022/03/04 06:41:45;0.00;0.00;0.62;0.00;0.00;0.62;1.97;1.40;;;22.20;20.80;;;;;;2252877;61;20391;-65
2022/03/04 06:44:30;0.00;0.00;0.62;0.00;0.00;0.62;2.17;1.37;;;22.20;20.30;;;;;;2253835;61;20367;-65
2022/03/04 06:47:16;0.00;0.00;0.62;0.00;0.00;0.62;1.97;1.57;;;22.20;20.30;;;;;;2253713;61;20799;-65
2022/03/04 06:50:01;0.00;0.00;0.62;0.00;0.00;0.62;1.77;1.00;;;22.20;20.30;;;;;;2253619;61;20431;-64
2022/03/04 06:52:45;0.00;0.00;0.62;0.00;0.00;0.62;1.77;1.20;;;22.20;20.30;;;;;;2253718;61;20677;-65
2022/03/04 06:55:30;0.00;0.00;0.62;0.00;0.00;0.62;2.40;1.20;;;22.20;20.30;;;;;;2253345;61;20403;-64
2022/03/04 06:58:14;0.00;0.00;0.62;0.00;0.00;0.62;1.53;0.90;;;22.20;20.30;;;;;;2253718;61;20376;-65
2022/03/04 07:00:59;0.00;0.00;0.62;0.00;0.00;0.62;2.13;1.13;;;22.20;20.30;;;;;;2253820;61;20423;-63
2022/03/04 07:03:45;0.00;0.00;0.62;0.00;0.00;0.62;3.00;1.20;;;22.20;20.30;;;;;;2253467;61;20681;-66
2022/03/04 07:06:30;0.00;0.00;0.62;0.00;0.00;0.62;1.50;1.20;;;22.20;20.30;;;;;;2253187;61;20395;-66
2022/03/04 07:09:14;0.00;0.00;0.62;0.00;0.00;0.62;2.00;1.33;;;22.20;20.30;;;;;;2253646;61;20783;-66
2022/03/04 07:11:59;0.00;0.00;0.62;0.00;0.00;0.62;1.40;0.83;;;22.10;20.30;;;;;;2253180;61;20804;-65
2022/03/04 07:14:43;0.00;0.00;0.62;0.00;0.00;0.62;1.67;1.10;;;22.10;20.40;;;;;;2253977;61;20368;-65
2022/03/04 07:17:28;0.00;0.00;0.62;0.00;0.00;0.62;1.80;1.00;;;22.10;20.40;;;;;;2253638;61;20648;-66
2022/03/04 07:20:15;0.00;0.00;0.62;0.00;0.00;0.62;1.70;1.20;;;22.10;20.40;;;;;;2253556;61;20364;-64
2022/03/04 07:23:00;0.00;0.00;0.62;0.00;0.00;0.62;2.33;1.17;;;22.10;20.40;;;;;;2253495;61;20784;-66
2022/03/04 07:25:45;0.00;0.00;0.62;0.00;0.00;0.62;1.40;0.90;;;22.20;20.50;;;;;;2253402;61;20713;-67
2022/03/04 07:28:29;0.00;0.00;0.62;0.00;0.00;0.62;1.87;1.30;;;22.10;20.50;;;;;;2253588;61;20731;-66
2022/03/04 07:31:14;0.00;0.00;0.62;0.00;0.00;0.62;2.00;1.00;;;22.10;20.50;;;;;;2253771;61;20676;-63
2022/03/04 07:33:58;0.00;0.00;0.62;0.00;0.00;0.62;1.70;1.03;;;22.10;20.50;;;;;;2253133;61;20355;-64
2022/03/04 07:36:45;0.00;0.00;0.62;0.00;0.00;0.62;1.60;1.00;;;22.10;20.50;;;;;;2253909;61;20384;-66
2022/03/04 07:39:29;0.00;0.00;0.62;0.00;0.00;0.62;1.93;1.27;;;22.10;20.50;;;;;;2253687;61;20581;-66
2022/03/04 07:42:14;0.00;0.00;0.62;0.00;0.00;0.62;1.20;0.80;;;22.10;20.50;;;;;;2253184;61;20443;-64
2022/03/04 07:44:59;0.00;0.00;0.62;0.00;0.00;0.62;1.50;1.10;;;22.10;20.50;;;;;;2253565;61;20399;-64
2022/03/04 07:47:43;0.00;0.00;0.62;0.00;0.00;0.62;1.60;1.30;;;22.10;20.50;;;;;;2253127;61;20455;-64
2022/03/04 07:50:28;0.00;0.00;0.62;0.00;0.00;0.62;1.70;0.87;;;22.10;20.50;;;;;;2253629;61;20367;-63
2022/03/04 07:53:15;0.00;0.00;0.62;0.00;0.00;0.62;1.30;0.90;;;22.10;20.60;;;;;;2253671;61;20799;-67
2022/03/04 07:56:00;0.00;0.00;0.62;0.00;0.00;0.62;1.50;1.00;;;22.10;20.50;;;;;;2253396;61;20579;-64
2022/03/04 07:58:44;0.00;0.00;0.62;0.00;0.00;0.62;1.30;0.80;;;22.10;20.60;;;;;;2253918;61;20368;-64
2022/03/04 08:01:29;0.00;0.00;0.62;0.00;0.00;0.62;1.33;0.80;;;22.10;20.60;;;;;;2253220;61;20384;-64
2022/03/04 08:04:14;0.00;0.00;0.62;0.00;0.00;0.62;1.80;1.10;;;22.10;20.60;;;;;;2253319;61;20426;-65
2022/03/04 08:06:58;0.00;0.00;0.62;0.00;0.00;0.62;1.30;0.83;;;22.10;20.60;;;;;;2253828;61;20955;-65
2022/03/04 08:09:45;0.00;0.00;0.62;0.00;0.00;0.62;1.43;0.80;;;22.10;20.60;;;;;;2252921;61;20414;-64
2022/03/04 08:12:29;0.00;0.00;0.62;0.00;0.00;0.62;1.20;0.70;;;22.10;20.60;;;;;;2253327;61;20491;-64
2022/03/04 08:15:14;0.00;0.00;0.62;0.00;0.00;0.62;1.50;1.00;;;22.10;20.60;;;;;;2253877;61;20396;-64
2022/03/04 08:17:58;0.00;0.00;0.62;0.00;0.00;0.62;1.67;1.00;;;22.10;20.60;;;;;;2253191;61;20367;-64
2022/03/04 08:20:43;0.00;0.00;0.62;0.00;0.00;0.62;2.20;1.20;;;22.10;20.60;;;;;;2253677;61;20360;-64
2022/03/04 08:23:28;0.00;0.00;0.62;0.00;0.00;0.62;1.70;1.10;;;22.10;20.60;;;;;;2253418;61;20492;-64
2022/03/04 08:26:14;0.00;0.00;0.62;0.00;0.00;0.62;1.47;0.97;;;22.10;20.60;;;;;;2253179;61;20766;-64
2022/03/04 08:28:58;0.00;0.00;0.62;0.00;0.00;0.62;1.77;1.00;;;22.10;20.60;;;;;;2253796;61;20886;-64
2022/03/04 08:31:43;0.00;0.00;0.62;0.00;0.00;0.62;1.30;0.77;;;22.10;20.60;;;;;;2252790;61;20375;-65
2022/03/04 08:34:28;0.00;0.00;0.62;0.00;0.00;0.62;1.30;0.70;;;22.10;20.60;;;;;;2253413;61;20595;-65
2022/03/04 08:37:13;0.00;0.00;0.62;0.00;0.00;0.62;1.50;1.00;;;22.10;20.70;;;;;;2253723;61;20649;-66
2022/03/04 08:39:58;0.00;0.00;0.62;0.00;0.00;0.62;1.67;1.13;;;22.20;20.70;;;;;;2253230;61;20435;-66
2022/03/04 08:42:44;0.00;0.00;0.62;0.00;0.00;0.62;1.40;0.80;;;22.10;20.70;;;;;;2253298;61;20498;-66
2022/03/04 08:45:30;0.00;0.00;0.62;0.00;0.00;0.62;1.53;0.97;;;22.10;20.70;;;;;;2253270;61;20370;-66
2022/03/04 08:48:15;0.00;0.00;0.62;0.00;0.00;0.62;1.90;1.20;;;22.10;20.60;;;;;;2253049;61;20364;-66
2022/03/04 08:50:59;0.00;0.00;0.62;0.00;0.00;0.62;2.00;1.33;;;22.10;20.60;;;;;;2253533;61;20513;-65
2022/03/04 08:53:44;0.00;0.00;0.62;0.00;0.00;0.62;1.63;1.03;;;22.10;20.70;;;;;;2252937;61;20359;-65
2022/03/04 08:56:28;0.00;0.00;0.62;0.00;0.00;0.62;1.20;0.70;;;22.10;21.20;;;;;;2253276;61;20411;-66
2022/03/04 08:59:14;0.00;0.00;0.62;0.00;0.00;0.62;1.40;0.97;;;22.10;20.70;;;;;;2253598;61;20361;-66
2022/03/04 09:01:59;0.00;0.00;0.62;0.00;0.00;0.62;1.67;0.93;;;22.10;20.70;;;;;;2252753;61;20395;-66
2022/03/04 09:04:43;0.00;0.00;0.62;0.00;0.00;0.62;1.43;0.93;;;22.10;20.70;;;;;;2253576;61;20359;-66
2022/03/04 09:07:28;0.00;0.00;0.62;0.00;0.00;0.62;1.40;1.00;;;22.10;20.70;;;;;;2252977;61;20407;-65
2022/03/04 09:10:13;0.00;0.00;0.62;0.00;0.00;0.62;1.67;1.00;;;22.10;20.70;;;;;;2252956;61;20367;-66
2022/03/04 09:12:57;0.00;0.00;0.62;0.00;0.00;0.62;1.50;1.00;;;22.10;20.70;;;;;;2253427;61;20384;-65
2022/03/04 09:15:43;0.00;0.00;0.62;0.00;0.00;0.62;1.70;1.00;;;22.10;20.70;;;;;;2253320;61;20360;-64
2022/03/04 09:18:28;0.00;0.00;0.62;0.00;0.00;0.62;1.73;1.13;;;22.10;20.70;;;;;;2253320;61;20371;-64
2022/03/04 09:21:12;0.00;0.00;0.62;0.00;0.00;0.62;1.57;1.07;;;22.20;20.70;;;;;;2253341;61;20606;-65
2022/03/04 09:23:57;0.00;0.00;0.62;0.00;0.00;0.62;2.67;1.40;;;22.10;20.70;;;;;;2253024;61;20400;-66
2022/03/04 09:26:42;0.00;0.00;0.62;0.00;0.00;0.62;1.40;1.00;;;22.10;21.20;;;;;;2253294;61;20390;-66
2022/03/04 09:29:26;0.00;0.00;0.62;0.00;0.00;0.62;1.50;1.03;;;22.20;20.80;;;;;;2253655;61;20490;-66
2022/03/04 09:32:12;0.00;0.00;0.62;0.00;0.00;0.62;1.60;0.90;;;22.20;20.80;;;;;;2253080;61;20372;-66
2022/03/04 09:34:57;0.00;0.00;0.62;0.00;0.00;0.62;1.70;1.00;;;22.20;20.80;;;;;;2253556;61;20893;-66
2022/03/04 09:37:42;0.00;0.00;0.62;0.00;0.00;0.62;1.57;1.00;;;22.20;20.80;;;;;;2253325;61;20407;-63
2022/03/04 09:40:26;0.00;0.00;0.62;0.00;0.00;0.62;1.63;0.93;;;22.20;20.80;;;;;;2252937;61;20407;-64
2022/03/04 09:43:11;0.00;0.00;0.62;0.00;0.00;0.62;1.50;0.93;;;22.20;20.80;;;;;;2253361;61;20380;-66
2022/03/04 09:45:55;0.00;0.00;0.62;0.00;0.00;0.62;1.40;0.97;;;22.20;20.80;;;;;;2252896;61;20712;-66
2022/03/04 09:48:44;0.00;0.00;0.62;0.00;0.00;0.62;1.50;0.90;;;22.20;20.80;;;;;;2253336;61;20376;-65
2022/03/04 09:51:28;0.00;0.00;0.62;0.00;0.00;0.62;1.80;1.30;;;22.20;20.80;;;;;;2253687;61;20364;-65
2022/03/04 09:54:13;0.00;0.00;0.62;0.00;0.00;0.62;1.70;1.07;;;22.20;20.80;;;;;;2252849;61;20462;-65
2022/03/04 09:56:58;0.00;0.00;0.62;0.00;0.00;0.62;1.90;1.10;;;22.10;20.70;;;;;;2253589;61;20364;-65
2022/03/04 09:59:44;0.00;0.00;0.62;0.00;0.00;0.62;2.23;1.20;;;22.10;20.70;;;;;;2253228;61;20579;-67
2022/03/04 10:02:33;0.00;0.00;0.62;0.00;0.00;0.62;1.80;1.10;;;22.20;20.80;;;;;;2253208;61;20506;-64
2022/03/04 10:05:19;0.00;0.00;0.62;0.00;0.00;0.62;1.50;1.00;;;22.20;20.80;;;;;;2254305;61;20384;-66
2022/03/04 10:08:18;0.00;0.00;0.62;0.00;0.00;0.62;1.60;1.10;;;22.20;20.80;;;;;;2253431;61;20787;-65
2022/03/04 10:11:03;0.00;0.00;0.62;0.00;0.00;0.62;1.90;1.23;;;22.20;20.80;;;;;;2253864;61;20379;-64
2022/03/04 10:13:49;0.00;0.00;0.62;0.00;0.00;0.62;1.77;1.13;;;22.20;20.80;;;;;;2254159;61;20743;-64
2022/03/04 10:16:38;0.00;0.00;0.62;0.00;0.00;0.62;1.30;0.83;;;22.20;20.80;;;;;;2253400;61;20364;-65
2022/03/04 10:19:23;0.00;0.00;0.62;0.00;0.00;0.62;2.27;1.10;;;22.20;20.80;;;;;;2254249;61;20579;-64
2022/03/04 10:22:09;0.00;0.00;0.62;0.00;0.00;0.62;1.60;1.03;;;22.20;20.80;;;;;;2253218;61;20600;-66
2022/03/04 10:24:56;0.00;0.00;0.62;0.00;0.00;0.62;1.70;1.10;;;22.20;20.80;;;;;;2253674;61;20363;-65
2022/03/04 10:27:41;0.00;0.00;0.62;0.00;0.00;0.62;1.80;1.30;;;22.20;20.90;;;;;;2254123;61;20407;-66
2022/03/04 10:30:32;0.00;0.00;0.62;0.00;0.00;0.62;1.97;1.33;;;22.20;20.90;;;;;;2253413;61;20364;-65
2022/03/04 10:33:20;0.00;0.00;0.62;0.00;0.00;0.62;1.67;1.27;;;22.20;20.90;;;;;;2253815;61;20446;-65
2022/03/04 10:36:08;0.00;0.00;0.62;0.00;0.00;0.62;1.83;1.40;;;22.20;20.90;;;;;;2254068;61;20368;-65
2022/03/04 10:39:11;0.00;0.00;0.62;0.00;0.00;0.62;2.13;1.30;;;22.20;20.90;;;;;;2253650;61;20359;-65
2022/03/04 10:41:55;0.00;0.00;0.62;0.00;0.00;0.62;1.90;1.40;;;22.20;21.00;;;;;;2253787;61;20391;-65
2022/03/04 10:44:40;0.00;0.00;0.62;0.00;0.00;0.62;1.83;1.37;;;22.20;21.00;;;;;;2253671;61;20360;-64
2022/03/04 10:47:39;0.00;0.00;0.62;0.00;0.00;0.62;1.33;0.93;;;22.20;21.00;;;;;;2253740;61;20398;-65
2022/03/04 10:50:32;0.00;0.00;0.62;0.00;0.00;0.62;1.60;1.07;;;22.20;21.00;;;;;;2254059;61;20403;-65
2022/03/04 10:53:19;0.00;0.00;0.62;0.00;0.00;0.62;1.93;1.00;;;22.20;21.00;;;;;;2253224;61;20371;-65